createdAt,value
2023-01-28T00:02:40.174Z,7.40
2023-01-28T00:07:50.200Z,8.00
2023-01-28T00:12:57.409Z,7.50
2023-01-28T00:18:04.741Z,8.10
2023-01-28T00:23:11.924Z,8.10
2023-01-28T00:28:22.526Z,8.90
2023-01-28T00:33:30.311Z,8.60
2023-01-28T00:38:37.472Z,8.50
2023-01-28T00:43:45.589Z,8.40
2023-01-28T00:48:52.976Z,8.30
2023-01-28T00:54:00.123Z,8.00
2023-01-28T00:59:07.666Z,9.40
2023-01-28T01:04:27.074Z,7.20
2023-01-28T01:09:36.263Z,7.80
2023-01-28T01:14:43.852Z,7.20
2023-01-28T01:19:51.102Z,6.30
2023-01-28T01:24:58.224Z,6.40
2023-01-28T01:30:06.060Z,6.40
2023-01-28T01:35:14.874Z,6.70
2023-01-28T01:40:22.361Z,6.30
2023-01-28T01:45:31.030Z,11.00
2023-01-28T01:50:41.695Z,6.90
2023-01-28T01:55:52.386Z,8.90
2023-01-28T02:00:59.928Z,6.60
2023-01-28T02:06:08.168Z,6.40
2023-01-28T02:11:18.311Z,5.80
2023-01-28T02:16:27.623Z,5.80
2023-01-28T02:22:03.341Z,5.60
2023-01-28T02:27:23.130Z,5.30
2023-01-28T02:32:37.920Z,4.80
2023-01-28T02:37:53.481Z,5.20
2023-01-28T02:43:00.689Z,5.60
2023-01-28T02:48:08.617Z,5.80
2023-01-28T02:53:44.387Z,6.20
2023-01-28T02:59:00.828Z,4.10
2023-01-28T03:04:16.667Z,4.30
2023-01-28T03:09:27.336Z,4.40
2023-01-28T03:14:54.095Z,4.10
2023-01-28T03:20:18.942Z,4.20
2023-01-28T03:25:46.388Z,4.00
2023-01-28T03:36:46.688Z,4.00
2023-01-28T03:42:09.457Z,3.70
2023-01-28T03:47:25.446Z,3.60
2023-01-28T03:52:34.392Z,3.30
2023-01-28T03:58:02.036Z,5.00
2023-01-28T04:03:16.081Z,3.80
2023-01-28T04:08:27.609Z,4.40
2023-01-28T04:13:51.297Z,4.30
2023-01-28T04:18:59.485Z,4.50
2023-01-28T04:24:08.030Z,4.00
2023-01-28T04:29:15.827Z,7.60
2023-01-28T04:34:23.265Z,4.10
2023-01-28T04:39:48.969Z,4.20
2023-01-28T04:45:00.249Z,4.60
2023-01-28T04:50:26.211Z,4.40
2023-01-28T04:55:47.278Z,4.20
2023-01-28T05:00:59.305Z,3.50
2023-01-28T05:06:07.377Z,3.60
2023-01-28T05:11:20.609Z,3.10
2023-01-28T05:16:32.207Z,3.50
2023-01-28T05:21:39.569Z,3.40
2023-01-28T05:26:54.205Z,4.20
2023-01-28T05:32:01.443Z,3.70
2023-01-28T05:37:09.581Z,4.30
2023-01-28T05:42:20.905Z,3.90
2023-01-28T05:47:30.092Z,4.50
2023-01-28T05:52:45.535Z,7.40
2023-01-28T05:58:06.417Z,4.80
2023-01-28T06:03:14.046Z,5.00
2023-01-28T06:08:23.885Z,4.80
2023-01-28T06:13:31.148Z,4.40
2023-01-28T06:19:01.995Z,4.50
2023-01-28T06:24:10.294Z,4.20
2023-01-28T06:29:17.618Z,3.70
2023-01-28T06:34:24.893Z,3.70
2023-01-28T06:39:33.413Z,3.50
2023-01-28T06:44:40.534Z,3.90
2023-01-28T06:49:47.685Z,3.70
2023-01-28T06:54:54.804Z,3.90
2023-01-28T07:00:01.960Z,3.90
2023-01-28T07:05:10.370Z,3.30
2023-01-28T07:10:18.180Z,3.60
2023-01-28T07:20:33.733Z,3.70
2023-01-28T07:25:40.886Z,3.40
2023-01-28T07:30:48.094Z,3.30
2023-01-28T07:35:55.301Z,3.20
2023-01-28T07:41:02.421Z,3.40
2023-01-28T07:46:09.783Z,3.30
2023-01-28T07:51:17.395Z,3.00
2023-01-28T07:56:24.597Z,3.80
2023-01-28T08:01:31.813Z,4.50
2023-01-28T08:06:38.972Z,4.40
2023-01-28T08:11:46.122Z,3.40
2023-01-28T08:16:53.235Z,4.90
2023-01-28T08:22:00.369Z,4.70
2023-01-28T08:27:07.715Z,4.00
2023-01-28T08:32:14.815Z,3.60
2023-01-28T08:37:22.041Z,4.50
2023-01-28T08:42:29.437Z,3.60
2023-01-28T08:47:38.274Z,3.60
2023-01-28T08:52:45.682Z,3.50
2023-01-28T08:57:53.103Z,4.90
2023-01-28T09:03:00.347Z,5.20
2023-01-28T09:08:09.269Z,5.90
2023-01-28T09:13:17.555Z,4.30
2023-01-28T09:18:24.848Z,4.60
2023-01-28T09:23:31.978Z,13.90
2023-01-28T09:28:40.496Z,7.00
2023-01-28T09:33:48.624Z,5.20
2023-01-28T09:38:56.299Z,3.50
2023-01-28T09:44:17.135Z,3.30
2023-01-28T09:49:33.962Z,3.40
2023-01-28T09:54:49.497Z,2.40
2023-01-28T09:59:56.678Z,2.30
2023-01-28T10:05:17.742Z,2.70
2023-01-28T10:10:31.648Z,3.90
2023-01-28T10:16:07.033Z,3.80
2023-01-28T10:21:21.745Z,3.40
2023-01-28T10:26:35.181Z,2.70
2023-01-28T10:31:52.192Z,2.30
2023-01-28T10:37:00.250Z,1.70
2023-01-28T10:47:26.232Z,1.80
2023-01-28T10:52:33.337Z,2.20
2023-01-28T10:57:44.348Z,2.70
2023-01-28T11:02:52.963Z,3.60
2023-01-28T11:08:17.046Z,2.70
2023-01-28T11:13:26.481Z,2.80
2023-01-28T11:18:36.856Z,1.90
2023-01-28T11:23:52.761Z,2.60
2023-01-28T11:29:00.168Z,3.80
2023-01-28T11:34:08.738Z,2.20
2023-01-28T11:39:26.113Z,2.20
2023-01-28T11:44:33.508Z,1.80
2023-01-28T11:49:54.687Z,2.40
2023-01-28T11:55:18.861Z,2.10
2023-01-28T12:00:46.887Z,1.80
2023-01-28T12:05:56.573Z,1.60
2023-01-28T12:11:48.500Z,1.90
2023-01-28T12:17:07.484Z,2.40
2023-01-28T12:22:33.920Z,2.00
2023-01-28T12:27:52.524Z,2.80
2023-01-28T12:33:13.349Z,2.10
2023-01-28T12:38:30.103Z,2.20
2023-01-28T12:43:47.455Z,1.70
2023-01-28T12:49:00.734Z,2.40
2023-01-28T12:54:18.279Z,1.80
2023-01-28T12:59:31.159Z,2.30
2023-01-28T13:04:46.896Z,2.10
2023-01-28T13:10:00.057Z,2.50
2023-01-28T13:15:13.393Z,1.80
2023-01-28T13:20:39.341Z,2.90
2023-01-28T13:25:53.739Z,3.60
2023-01-28T13:31:09.594Z,3.40
2023-01-28T13:36:29.681Z,3.90
2023-01-28T13:41:45.479Z,3.90
2023-01-28T13:46:53.256Z,3.90
2023-01-28T13:52:09.063Z,3.90
2023-01-28T13:57:43.594Z,5.30
2023-01-28T14:03:38.705Z,6.70
2023-01-28T14:09:13.888Z,6.60
2023-01-28T14:14:42.123Z,4.80
2023-01-28T14:19:51.162Z,5.00
2023-01-28T14:25:03.717Z,5.20
2023-01-28T14:30:17.296Z,5.00
2023-01-28T14:35:29.800Z,6.60
2023-01-28T14:40:40.169Z,5.00
2023-01-28T14:46:05.186Z,5.00
2023-01-28T14:51:24.888Z,5.20
2023-01-28T14:56:44.610Z,4.90
2023-01-28T15:01:56.387Z,5.10
2023-01-28T15:07:19.538Z,4.10
2023-01-28T15:12:26.891Z,5.30
2023-01-28T15:17:34.195Z,12.20
2023-01-28T15:22:44.021Z,9.50
2023-01-28T15:27:53.924Z,5.10
2023-01-28T15:33:03.990Z,5.10
2023-01-28T15:38:11.718Z,7.80
2023-01-28T15:43:22.181Z,6.20
2023-01-28T15:48:33.511Z,5.60
2023-01-28T15:53:47.570Z,6.60
2023-01-28T15:58:55.133Z,6.80
2023-01-28T16:04:07.042Z,8.10
2023-01-28T16:09:25.630Z,7.60
2023-01-28T16:14:37.827Z,7.50
2023-01-28T16:19:48.294Z,9.20
2023-01-28T16:24:56.241Z,7.80
2023-01-28T16:35:16.060Z,7.90
2023-01-28T16:40:25.396Z,9.40
2023-01-28T16:45:32.610Z,10.20
2023-01-28T16:50:42.923Z,9.40
2023-01-28T16:55:52.510Z,11.20
2023-01-28T17:00:59.815Z,10.80
2023-01-28T17:06:07.704Z,11.50
2023-01-28T17:16:21.053Z,12.00
2023-01-28T17:21:28.270Z,13.80
2023-01-28T17:26:36.755Z,15.20
2023-01-28T17:31:44.054Z,16.50
2023-01-28T17:36:51.436Z,19.70
2023-01-28T17:41:58.588Z,20.80
2023-01-28T17:47:06.032Z,21.00
2023-01-28T17:52:13.176Z,26.10
2023-01-28T17:57:20.371Z,23.90
2023-01-28T18:02:27.983Z,20.00
2023-01-28T18:07:35.492Z,18.10
2023-01-28T18:12:42.778Z,19.70
2023-01-28T18:17:50.073Z,19.40
2023-01-28T18:22:57.327Z,21.00
2023-01-28T18:28:05.873Z,19.50
2023-01-28T18:33:13.037Z,21.60
2023-01-28T18:38:20.409Z,19.70
2023-01-28T18:43:29.072Z,19.50
2023-01-28T18:48:36.313Z,19.40
2023-01-28T18:53:43.500Z,20.20
2023-01-28T18:58:50.565Z,19.20
2023-01-28T19:03:59.089Z,21.50
2023-01-28T19:09:11.232Z,19.10
2023-01-28T19:14:18.738Z,19.30
2023-01-28T19:19:26.221Z,18.90
2023-01-28T19:24:33.471Z,20.80
2023-01-28T19:29:40.677Z,20.40
2023-01-28T19:34:48.066Z,20.80
2023-01-28T19:39:55.210Z,20.30
2023-01-28T19:45:04.057Z,21.90
2023-01-28T19:50:13.214Z,21.80
2023-01-28T19:55:21.457Z,21.50
2023-01-28T20:00:29.667Z,22.30
2023-01-28T20:05:39.180Z,23.80
2023-01-28T20:10:48.040Z,21.70
2023-01-28T20:15:55.588Z,21.20
2023-01-28T20:21:05.430Z,21.60
2023-01-28T20:26:13.510Z,22.10
2023-01-28T20:31:22.093Z,23.40
2023-01-28T20:36:30.083Z,22.40
2023-01-28T20:41:38.252Z,23.30
2023-01-28T20:46:46.155Z,22.60
2023-01-28T20:51:54.947Z,24.90
2023-01-28T20:57:02.332Z,25.00
2023-01-28T21:02:11.973Z,26.70
2023-01-28T21:07:19.955Z,25.60
2023-01-28T21:12:30.329Z,22.90
2023-01-28T21:17:37.909Z,22.50
2023-01-28T21:22:45.878Z,24.80
2023-01-28T21:32:59.836Z,26.70
2023-01-28T21:38:07.959Z,22.50
2023-01-28T21:43:15.406Z,23.30
2023-01-28T21:48:23.714Z,22.70
2023-01-28T21:58:57.188Z,22.10
2023-01-28T22:04:04.609Z,25.10
2023-01-28T22:09:14.226Z,22.50
2023-01-28T22:14:23.182Z,21.80
2023-01-28T22:19:31.280Z,21.90
2023-01-28T22:24:39.913Z,22.40
2023-01-28T22:29:47.630Z,24.70
2023-01-28T22:34:55.119Z,22.90
2023-01-28T22:40:02.538Z,23.40
2023-01-28T22:45:11.971Z,22.30
2023-01-28T22:50:20.351Z,21.00
2023-01-28T22:55:27.632Z,22.00
2023-01-28T23:00:34.835Z,22.00
2023-01-28T23:05:42.064Z,20.20
2023-01-28T23:10:51.251Z,17.80
2023-01-28T23:16:17.250Z,18.50
2023-01-28T23:21:45.585Z,19.80
2023-01-28T23:26:57.501Z,17.30
2023-01-28T23:32:07.361Z,17.70
2023-01-28T23:37:15.688Z,17.20
2023-01-28T23:42:23.740Z,17.40
2023-01-28T23:52:36.344Z,16.30
2023-01-28T23:57:43.648Z,14.50
